This is the latest recevied weather packets stored in our database for station/object DB0LHR-6. If no packets are shown the sender has not sent any weather packets the latest 10 day(s).
| Time | Temp. | Humidity | Pressure | Rain* | Wind** | Luminosity | Snow |
|---|---|---|---|---|---|---|---|
| 1777999576 | 14.44° C | 85% | 1008 hPa | 0 mm | - | - | - |
| 1777998676 | 14.44° C | 83% | 1008 hPa | 0 mm | - | - | - |
| 1777997776 | 15° C | 82% | 1008 hPa | 0 mm | - | - | - |
| 1777996876 | 15.56° C | 79% | 1008 hPa | 0 mm | - | - | - |
| 1777995976 | 16.11° C | 75% | 1008 hPa | 0 mm | - | - | - |
| 1777995076 | 17.22° C | 66% | 1007 hPa | 0 mm | - | - | - |
| 1777994176 | 17.78° C | 62% | 1007 hPa | 0 mm | - | - | - |
| 1777993276 | 18.89° C | 61% | 1007 hPa | 0 mm | - | - | - |
| 1777992376 | 18.89° C | 61% | 1007 hPa | 0 mm | - | - | - |
| 1777991476 | 18.33° C | 59% | 1007 hPa | 0 mm | - | - | - |
| 1777990576 | 18.89° C | 58% | 1007 hPa | 0 mm | - | - | - |
| 1777989676 | 18.89° C | 62% | 1008 hPa | 0 mm | - | - | - |
| 1777988775 | 18.33° C | 68% | 1008 hPa | 0 mm | - | - | - |
| 1777987875 | 17.78° C | 65% | 1008 hPa | 0 mm | - | - | - |
| 1777986975 | 17.78° C | 68% | 1008 hPa | 0 mm | - | - | - |
| 1777986075 | 17.22° C | 73% | 1008 hPa | 0 mm | - | - | - |
| 1777985175 | 16.67° C | 72% | 1008 hPa | 0 mm | - | - | - |
| 1777984275 | 16.67° C | 71% | 1008 hPa | 0 mm | - | - | - |
| 1777983376 | 16.67° C | 72% | 1009 hPa | 0 mm | - | - | - |
| 1777982476 | 16.67° C | 72% | 1009 hPa | 0 mm | - | - | - |
| 1777981576 | 16.11° C | 73% | 1009 hPa | 0 mm | - | - | - |
| 1777980675 | 16.11° C | 75% | 1009 hPa | 0 mm | - | - | - |
| 1777979776 | 16.11° C | 73% | 1009 hPa | 0 mm | - | - | - |
| 1777978876 | 16.11° C | 72% | 1009 hPa | 0 mm | - | - | - |
| 1777977976 | 16.11° C | 69% | 1009 hPa | 0 mm | - | - | - |
* Rain latest 24 hours (hover to see other rain measurements)
** Current wind speed in m/s (hover to see current wind gust speed)